createdAt,value
2023-05-04T00:02:14.054Z,102452.31
2023-05-04T00:04:42.759Z,102432.09
2023-05-04T00:07:10.969Z,102446.22
2023-05-04T00:09:40.458Z,102439.31
2023-05-04T00:12:09.029Z,102435.66
2023-05-04T00:14:37.131Z,102438.44
2023-05-04T00:17:06.664Z,102434.00
2023-05-04T00:19:35.344Z,102414.31
2023-05-04T00:22:03.684Z,102391.59
2023-05-04T00:24:31.671Z,102439.69
2023-05-04T00:27:01.193Z,102444.06
2023-05-04T00:29:29.705Z,102433.50
2023-05-04T00:31:58.214Z,102445.97
2023-05-04T00:34:26.292Z,102449.56
2023-05-04T00:36:54.337Z,102453.22
2023-05-04T00:39:22.623Z,102467.47
2023-05-04T00:41:50.742Z,102494.28
2023-05-04T00:44:23.426Z,102489.75
2023-05-04T00:46:52.451Z,102485.38
2023-05-04T00:49:22.185Z,102493.31
2023-05-04T00:51:51.365Z,102490.78
2023-05-04T00:54:20.973Z,102487.09
2023-05-04T00:56:49.190Z,102487.97
2023-05-04T00:59:18.934Z,102487.91
2023-05-04T01:01:47.100Z,102472.75
2023-05-04T01:04:16.131Z,102460.16
2023-05-04T01:06:49.005Z,102472.66
2023-05-04T01:09:25.223Z,102486.94
2023-05-04T01:11:59.516Z,102503.00
2023-05-04T01:14:30.953Z,102511.06
2023-05-04T01:17:00.389Z,102507.59
2023-05-04T01:19:29.292Z,102501.84
2023-05-04T01:21:58.832Z,102495.06
2023-05-04T01:24:27.935Z,102530.81
2023-05-04T01:27:02.409Z,102539.75
2023-05-04T01:29:35.919Z,102535.31
2023-05-04T01:32:04.885Z,102524.59
2023-05-04T01:34:32.880Z,102511.19
2023-05-04T01:37:03.736Z,102501.34
2023-05-04T01:39:31.713Z,102494.56
2023-05-04T01:42:00.069Z,102504.13
2023-05-04T01:44:28.153Z,102483.41
2023-05-04T01:46:56.186Z,102504.91
2023-05-04T01:49:24.251Z,102507.50
2023-05-04T01:51:52.170Z,102512.03
2023-05-04T01:54:21.590Z,102512.03
2023-05-04T01:56:49.705Z,102510.25
2023-05-04T01:59:17.846Z,102476.94
2023-05-04T02:01:45.995Z,102509.34
2023-05-04T02:04:14.165Z,102514.69
2023-05-04T02:06:42.151Z,102516.50
2023-05-04T02:09:10.151Z,102520.97
2023-05-04T02:11:39.454Z,102515.63
2023-05-04T02:14:07.405Z,102520.19
2023-05-04T02:16:35.515Z,102522.00
2023-05-04T02:19:03.507Z,102513.09
2023-05-04T02:21:31.464Z,102508.75
2023-05-04T02:23:59.476Z,102518.56
2023-05-04T02:26:27.530Z,102519.53
2023-05-04T02:28:56.893Z,102517.78
2023-05-04T02:31:25.157Z,102512.56
2023-05-04T02:33:54.013Z,102501.56
2023-05-04T02:36:22.376Z,102518.00
2023-05-04T02:38:51.296Z,102519.81
2023-05-04T02:41:19.445Z,102523.41
2023-05-04T02:43:47.613Z,102518.16
2023-05-04T02:46:17.104Z,102472.94
2023-05-04T02:48:45.149Z,102525.41
2023-05-04T02:51:13.279Z,102524.50
2023-05-04T02:53:41.303Z,102523.59
2023-05-04T02:56:09.309Z,102528.06
2023-05-04T02:58:37.307Z,102527.19
2023-05-04T03:01:05.416Z,102523.63
2023-05-04T03:03:34.811Z,102522.75
2023-05-04T03:06:02.819Z,102518.38
2023-05-04T03:08:30.943Z,102524.56
2023-05-04T03:10:58.983Z,102527.34
2023-05-04T03:13:27.007Z,102528.13
2023-05-04T03:15:55.088Z,102523.72
2023-05-04T03:18:23.451Z,102529.09
2023-05-04T03:20:53.339Z,102532.69
2023-05-04T03:23:22.943Z,102531.81
2023-05-04T03:25:51.427Z,102529.22
2023-05-04T03:28:20.140Z,102521.53
2023-05-04T03:30:48.461Z,102519.91
2023-05-04T03:33:16.662Z,102538.19
2023-05-04T03:35:44.884Z,102544.34
2023-05-04T03:38:14.372Z,102538.91
2023-05-04T03:40:44.694Z,102541.66
2023-05-04T03:43:13.937Z,102546.75
2023-05-04T03:45:41.974Z,102542.16
2023-05-04T03:48:10.081Z,102548.28
2023-05-04T03:50:38.167Z,102554.38
2023-05-04T03:53:07.013Z,102550.53
2023-05-04T03:55:36.688Z,102554.81
2023-05-04T03:58:04.781Z,102555.53
2023-05-04T04:00:33.587Z,102554.44
2023-05-04T04:03:10.014Z,102558.94
2023-05-04T04:05:39.188Z,102559.44
2023-05-04T04:08:07.596Z,102566.47
2023-05-04T04:10:37.153Z,102560.88
2023-05-04T04:13:05.335Z,102564.25
2023-05-04T04:15:33.434Z,102567.63
2023-05-04T04:18:01.543Z,102559.44
2023-05-04T04:20:29.556Z,102567.38
2023-05-04T04:22:57.496Z,102562.75
2023-05-04T04:25:25.504Z,102567.88
2023-05-04T04:27:54.964Z,102574.81
2023-05-04T04:30:23.284Z,102570.25
2023-05-04T04:32:51.175Z,102581.69
2023-05-04T04:35:19.274Z,102578.88
2023-05-04T04:37:47.229Z,102576.97
2023-05-04T04:40:15.418Z,102576.94
2023-05-04T04:42:43.338Z,102566.19
2023-05-04T04:45:14.790Z,102581.91
2023-05-04T04:47:42.828Z,102573.13
2023-05-04T04:50:12.048Z,102585.25
2023-05-04T04:52:41.324Z,102585.16
2023-05-04T04:55:10.257Z,102574.66
2023-05-04T04:57:38.239Z,102584.91
2023-05-04T05:00:09.451Z,102583.91
2023-05-04T05:02:38.936Z,102583.84
2023-05-04T05:05:07.727Z,102581.16
2023-05-04T05:07:36.398Z,102595.06
2023-05-04T05:10:04.799Z,102586.91
2023-05-04T05:12:33.198Z,102592.06
2023-05-04T05:15:01.284Z,102589.16
2023-05-04T05:17:29.326Z,102588.13
2023-05-04T05:19:58.742Z,102596.88
2023-05-04T05:22:26.692Z,102597.69
2023-05-04T05:24:54.630Z,102597.69
2023-05-04T05:27:22.653Z,102608.22
2023-05-04T05:29:50.637Z,102598.28
2023-05-04T05:32:18.735Z,102600.91
2023-05-04T05:34:46.660Z,102601.69
2023-05-04T05:37:15.985Z,102604.22
2023-05-04T05:39:44.058Z,102597.88
2023-05-04T05:42:12.325Z,102604.03
2023-05-04T05:44:40.350Z,102603.00
2023-05-04T05:47:08.459Z,102609.09
2023-05-04T05:49:36.440Z,102596.56
2023-05-04T05:52:04.444Z,102582.75
2023-05-04T05:54:34.173Z,102614.16
2023-05-04T05:57:02.462Z,102610.50
2023-05-04T05:59:30.807Z,102614.00
2023-05-04T06:01:58.919Z,102626.47
2023-05-04T06:04:26.935Z,102621.03
2023-05-04T06:06:55.029Z,102616.38
2023-05-04T06:09:22.986Z,102623.41
2023-05-04T06:11:54.046Z,102611.81
2023-05-04T06:14:23.424Z,102620.66
2023-05-04T06:16:51.348Z,102625.00
2023-05-04T06:19:19.844Z,102633.84
2023-05-04T06:21:49.975Z,102612.91
2023-05-04T06:24:18.056Z,102633.59
2023-05-04T06:26:46.331Z,102635.34
2023-05-04T06:29:15.840Z,102640.56
2023-05-04T06:31:45.027Z,102639.59
2023-05-04T06:34:14.129Z,102637.72
2023-05-04T06:36:42.332Z,102635.81
2023-05-04T06:39:10.445Z,102641.88
2023-05-04T06:41:38.439Z,102648.94
2023-05-04T06:44:06.718Z,102642.59
2023-05-04T06:46:38.029Z,102642.44
2023-05-04T06:49:06.362Z,102643.22
2023-05-04T06:51:36.266Z,102648.44
2023-05-04T06:54:04.321Z,102652.88
2023-05-04T06:56:32.568Z,102652.00
2023-05-04T06:59:00.637Z,102650.84
2023-05-04T07:01:28.717Z,102647.88
2023-05-04T07:03:58.899Z,102654.91
2023-05-04T07:06:27.517Z,102651.19
2023-05-04T07:08:55.523Z,102651.91
2023-05-04T07:11:23.537Z,102651.03
2023-05-04T07:13:51.640Z,102653.47
2023-05-04T07:16:19.771Z,102650.63
2023-05-04T07:18:47.903Z,102646.03
2023-05-04T07:21:27.694Z,102577.94
2023-05-04T07:23:56.758Z,102646.59
2023-05-04T07:26:25.117Z,102650.03
2023-05-04T07:28:53.267Z,102651.59
2023-05-04T07:31:21.618Z,102661.31
2023-05-04T07:33:49.603Z,102653.19
2023-05-04T07:36:18.895Z,102642.50
2023-05-04T07:38:46.921Z,102667.09
2023-05-04T07:41:14.909Z,102655.19
2023-05-04T07:43:42.948Z,102659.38
2023-05-04T07:46:11.082Z,102651.03
2023-05-04T07:48:39.307Z,102650.81
2023-05-04T07:51:07.620Z,102658.78
2023-05-04T07:53:36.965Z,102670.00
2023-05-04T07:56:09.780Z,102657.06
2023-05-04T07:58:37.890Z,102571.81
2023-05-04T08:01:05.967Z,102664.81
2023-05-04T08:03:33.949Z,102660.13
2023-05-04T08:06:02.031Z,102658.09
2023-05-04T08:08:30.417Z,102653.53
2023-05-04T08:11:11.714Z,102655.19
2023-05-04T08:13:46.437Z,102666.72
2023-05-04T08:16:14.783Z,102667.59
2023-05-04T08:18:43.463Z,102655.19
2023-05-04T08:21:11.860Z,102664.69
2023-05-04T08:23:39.913Z,102669.13
2023-05-04T08:26:09.284Z,102677.03
2023-05-04T08:28:40.469Z,102669.75
2023-05-04T08:31:08.868Z,102664.34
2023-05-04T08:33:36.892Z,102666.97
2023-05-04T08:36:05.362Z,102659.16
2023-05-04T08:38:33.408Z,102660.72
2023-05-04T08:41:03.501Z,102681.88
2023-05-04T08:43:36.501Z,102679.19
2023-05-04T08:46:05.321Z,102677.47
2023-05-04T08:48:34.525Z,102665.13
2023-05-04T08:51:04.350Z,102674.78
2023-05-04T08:53:34.120Z,102662.44
2023-05-04T08:56:04.641Z,102672.16
2023-05-04T08:58:37.973Z,102678.25
2023-05-04T09:01:08.433Z,102672.88
2023-05-04T09:03:37.399Z,102677.31
2023-05-04T09:06:07.942Z,102695.28
2023-05-04T09:08:36.257Z,102686.16
2023-05-04T09:11:04.363Z,102674.44
2023-05-04T09:13:32.386Z,102687.91
2023-05-04T09:16:01.796Z,102682.53
2023-05-04T09:18:37.886Z,102679.19
2023-05-04T09:21:06.524Z,102692.50
2023-05-04T09:23:34.805Z,102697.00
2023-05-04T09:26:02.861Z,102683.75
2023-05-04T09:28:38.694Z,102665.34
2023-05-04T09:31:09.501Z,102687.22
2023-05-04T09:33:37.852Z,102684.59
2023-05-04T09:36:17.079Z,102669.69
2023-05-04T09:38:45.338Z,102678.41
2023-05-04T09:41:13.342Z,102694.41
2023-05-04T09:43:42.911Z,102687.47
2023-05-04T09:46:19.325Z,102685.38
2023-05-04T09:48:55.156Z,102688.25
2023-05-04T09:51:26.738Z,102687.47
2023-05-04T09:53:56.122Z,102690.25
2023-05-04T09:56:31.833Z,102682.34
2023-05-04T09:59:00.634Z,102696.66
2023-05-04T10:01:31.254Z,102693.09
2023-05-04T10:03:59.327Z,102674.09
2023-05-04T10:06:30.118Z,102661.94
2023-05-04T10:09:00.526Z,102693.31
2023-05-04T10:11:29.699Z,102689.75
2023-05-04T10:13:57.949Z,102688.88
2023-05-04T10:16:38.021Z,102688.75
2023-05-04T10:19:37.176Z,102693.38
2023-05-04T10:22:19.314Z,102657.78
2023-05-04T10:25:03.625Z,102686.16
2023-05-04T10:27:45.902Z,102688.88
2023-05-04T10:30:17.000Z,102688.94
2023-05-04T10:32:46.669Z,102676.50
2023-05-04T10:35:18.633Z,102678.09
2023-05-04T10:37:54.517Z,102680.69
2023-05-04T10:40:35.454Z,102657.34
2023-05-04T10:43:03.547Z,102670.78
2023-05-04T10:45:39.432Z,102688.00
2023-05-04T10:48:09.924Z,102672.53
2023-05-04T10:50:45.142Z,102670.53
2023-05-04T10:53:13.988Z,102679.22
2023-05-04T10:55:42.744Z,102675.84
2023-05-04T10:58:14.747Z,102667.84
2023-05-04T11:00:44.813Z,102674.97
2023-05-04T11:03:15.230Z,102674.03
2023-05-04T11:05:44.552Z,102677.66
2023-05-04T11:08:20.127Z,102671.34
2023-05-04T11:10:48.963Z,102655.97
2023-05-04T11:13:17.402Z,102673.31
2023-05-04T11:15:49.724Z,102676.88
2023-05-04T11:18:29.003Z,102673.22
2023-05-04T11:20:57.233Z,102666.13
2023-05-04T11:23:25.845Z,102650.75
2023-05-04T11:25:54.858Z,102685.84
2023-05-04T11:28:32.827Z,102667.00
2023-05-04T11:31:01.024Z,102676.94
2023-05-04T11:33:31.842Z,102686.94
2023-05-04T11:36:02.302Z,102675.25
2023-05-04T11:38:30.861Z,102680.69
2023-05-04T11:40:58.898Z,102678.09
2023-05-04T11:43:27.268Z,102681.56
2023-05-04T11:45:59.443Z,102670.91
2023-05-04T11:48:27.994Z,102669.84
2023-05-04T11:50:58.028Z,102675.13
2023-05-04T11:53:26.377Z,102673.31
2023-05-04T11:55:54.537Z,102673.22
2023-05-04T11:58:26.349Z,102634.69
2023-05-04T12:00:57.072Z,102681.06
2023-05-04T12:03:35.474Z,102673.91
2023-05-04T12:06:09.313Z,102665.41
2023-05-04T12:08:42.188Z,102670.28
2023-05-04T12:11:14.981Z,102673.75
2023-05-04T12:13:45.013Z,102686.25
2023-05-04T12:16:14.452Z,102676.34
2023-05-04T12:18:44.343Z,102682.59
2023-05-04T12:21:15.608Z,102685.22
2023-05-04T12:23:44.028Z,102684.34
2023-05-04T12:26:12.845Z,102688.00
2023-05-04T12:28:42.256Z,102691.56
2023-05-04T12:31:10.503Z,102694.41
2023-05-04T12:33:38.532Z,102682.78
2023-05-04T12:36:08.442Z,102686.44
2023-05-04T12:38:39.038Z,102686.44
2023-05-04T12:41:10.822Z,102683.81
2023-05-04T12:43:39.247Z,102683.13
2023-05-04T12:46:07.457Z,102687.47
2023-05-04T12:48:35.924Z,102693.91
2023-05-04T12:51:05.040Z,102687.56
2023-05-04T12:53:33.156Z,102693.97
2023-05-04T12:56:03.777Z,102684.84
2023-05-04T12:58:32.127Z,102678.69
2023-05-04T13:01:00.518Z,102669.69
2023-05-04T13:03:28.736Z,102684.84
2023-05-04T13:05:58.052Z,102685.63
2023-05-04T13:08:26.078Z,102688.31
2023-05-04T13:10:54.212Z,102675.47
2023-05-04T13:13:28.720Z,102699.97
2023-05-04T13:15:57.350Z,102697.38
2023-05-04T13:18:27.415Z,102690.25
2023-05-04T13:20:56.086Z,102701.88
2023-05-04T13:23:24.575Z,102696.59
2023-05-04T13:25:52.835Z,102668.53
2023-05-04T13:28:20.963Z,102687.47
2023-05-04T13:30:50.736Z,102689.19
2023-05-04T13:33:28.831Z,102689.47
2023-05-04T13:35:58.986Z,102685.03
2023-05-04T13:38:27.410Z,102680.69
2023-05-04T13:40:56.094Z,102679.84
2023-05-04T13:43:24.518Z,102667.34
2023-05-04T13:45:53.887Z,102663.88
2023-05-04T13:48:21.923Z,102663.75
2023-05-04T13:50:49.908Z,102677.22
2023-05-04T13:53:17.950Z,102675.41
2023-05-04T13:55:46.130Z,102681.72
2023-05-04T13:58:14.257Z,102660.91
2023-05-04T14:00:43.226Z,102680.00
2023-05-04T14:03:12.685Z,102672.97
2023-05-04T14:05:40.666Z,102681.13
2023-05-04T14:08:08.664Z,102679.41
2023-05-04T14:10:38.129Z,102679.47
2023-05-04T14:13:06.280Z,102670.88
2023-05-04T14:15:34.289Z,102677.94
2023-05-04T14:18:02.277Z,102668.97
2023-05-04T14:20:31.701Z,102669.91
2023-05-04T14:22:59.759Z,102670.03
2023-05-04T14:25:27.793Z,102670.03
2023-05-04T14:27:55.796Z,102671.91
2023-05-04T14:30:24.050Z,102598.78
2023-05-04T14:32:54.253Z,102661.19
2023-05-04T14:35:22.566Z,102670.25
2023-05-04T14:37:51.921Z,102671.28
2023-05-04T14:40:19.982Z,102657.03
2023-05-04T14:42:48.180Z,102661.63
2023-05-04T14:45:16.229Z,102665.31
2023-05-04T14:47:44.309Z,102666.34
2023-05-04T14:50:13.408Z,102669.03
2023-05-04T14:52:41.472Z,102667.34
2023-05-04T14:55:12.099Z,102669.25
2023-05-04T14:57:40.125Z,102664.66
2023-05-04T15:00:10.010Z,102665.63
2023-05-04T15:02:39.268Z,102660.41
2023-05-04T15:05:09.783Z,102667.72
2023-05-04T15:07:37.938Z,102668.75
2023-05-04T15:10:08.148Z,102659.09
2023-05-04T15:12:39.624Z,102658.31
2023-05-04T15:15:08.590Z,102657.59
2023-05-04T15:17:36.818Z,102664.88
2023-05-04T15:20:05.487Z,102652.47
2023-05-04T15:22:33.854Z,102640.41
2023-05-04T15:25:02.646Z,102646.47
2023-05-04T15:27:30.822Z,102654.66
2023-05-04T15:30:00.464Z,102653.84
2023-05-04T15:32:28.804Z,102647.78
2023-05-04T15:35:04.561Z,102650.63
2023-05-04T15:37:33.677Z,102651.81
2023-05-04T15:40:02.735Z,102659.00
2023-05-04T15:42:30.947Z,102651.03
2023-05-04T15:45:00.459Z,102626.06
2023-05-04T15:47:28.515Z,102651.34
2023-05-04T15:49:56.618Z,102651.53
2023-05-04T15:52:25.049Z,102663.31
2023-05-04T15:54:53.047Z,102662.50
2023-05-04T15:57:21.019Z,102649.38
2023-05-04T15:59:49.683Z,102652.94
2023-05-04T16:02:19.587Z,102654.84
2023-05-04T16:04:47.649Z,102649.63
2023-05-04T16:07:15.990Z,102655.00
2023-05-04T16:09:43.991Z,102657.94
2023-05-04T16:12:12.106Z,102654.47
2023-05-04T16:14:40.076Z,102650.91
2023-05-04T16:17:08.337Z,102647.44
2023-05-04T16:19:38.116Z,102653.75
2023-05-04T16:22:06.308Z,102651.22
2023-05-04T16:24:34.447Z,102650.34
2023-05-04T16:27:03.355Z,102648.63
2023-05-04T16:29:31.337Z,102649.53
2023-05-04T16:31:59.320Z,102647.97
2023-05-04T16:34:27.372Z,102647.88
2023-05-04T16:36:56.800Z,102651.50
2023-05-04T16:39:30.010Z,102657.75
2023-05-04T16:41:58.461Z,102653.41
2023-05-04T16:44:26.553Z,102662.44
2023-05-04T16:46:54.561Z,102656.25
2023-05-04T16:49:22.764Z,102662.59
2023-05-04T16:51:50.767Z,102656.44
2023-05-04T16:54:21.122Z,102661.88
2023-05-04T16:56:49.235Z,102665.53
2023-05-04T16:59:17.680Z,102663.88
2023-05-04T17:01:45.813Z,102674.66
2023-05-04T17:04:13.771Z,102660.50
2023-05-04T17:06:41.885Z,102640.78
2023-05-04T17:09:09.881Z,102673.94
2023-05-04T17:11:39.398Z,102673.16
2023-05-04T17:14:07.463Z,102674.19
2023-05-04T17:16:35.523Z,102671.59
2023-05-04T17:19:03.667Z,102668.91
2023-05-04T17:21:32.886Z,102668.91
2023-05-04T17:24:00.886Z,102673.50
2023-05-04T17:26:29.062Z,102673.53
2023-05-04T17:28:58.498Z,102677.19
2023-05-04T17:31:26.517Z,102668.31
2023-05-04T17:33:54.567Z,102681.91
2023-05-04T17:36:22.660Z,102690.81
2023-05-04T17:38:50.757Z,102688.22
2023-05-04T17:41:18.935Z,102682.06
2023-05-04T17:43:47.442Z,102695.50
2023-05-04T17:46:16.828Z,102698.25
2023-05-04T17:48:46.000Z,102702.03
2023-05-04T17:51:14.020Z,102708.28
2023-05-04T17:53:41.964Z,102683.97
2023-05-04T17:56:10.047Z,102713.81
2023-05-04T17:58:38.145Z,102720.97
2023-05-04T18:01:06.148Z,102716.50
2023-05-04T18:03:35.594Z,102720.09
2023-05-04T18:06:03.721Z,102726.34
2023-05-04T18:08:31.617Z,102729.91
2023-05-04T18:10:59.776Z,102722.91
2023-05-04T18:13:27.829Z,102734.25
2023-05-04T18:15:55.742Z,102735.03
2023-05-04T18:18:23.772Z,102731.56
2023-05-04T18:20:53.227Z,102739.63
2023-05-04T18:23:21.302Z,102742.16
2023-05-04T18:25:49.168Z,102748.31
2023-05-04T18:28:17.412Z,102755.50
2023-05-04T18:30:45.699Z,102750.91
2023-05-04T18:33:13.597Z,102758.09
2023-05-04T18:35:41.935Z,102750.91
2023-05-04T18:38:11.612Z,102758.97
2023-05-04T18:40:39.600Z,102772.41
2023-05-04T18:43:07.582Z,102761.66
2023-05-04T18:45:35.745Z,102759.94
2023-05-04T18:48:03.901Z,102762.69
2023-05-04T18:50:31.820Z,102768.06
2023-05-04T18:53:00.345Z,102755.91
2023-05-04T18:55:29.715Z,102688.06
2023-05-04T18:57:57.663Z,102778.72
2023-05-04T19:00:26.780Z,102763.69
2023-05-04T19:02:54.845Z,102785.03
2023-05-04T19:05:22.845Z,102780.59
2023-05-04T19:07:50.755Z,102785.13
2023-05-04T19:10:18.908Z,102782.50
2023-05-04T19:12:48.398Z,102787.84
2023-05-04T19:15:16.716Z,102784.31
2023-05-04T19:17:44.716Z,102793.19
2023-05-04T19:20:13.138Z,102795.22
2023-05-04T19:22:41.204Z,102796.06
2023-05-04T19:25:11.171Z,102799.69
2023-05-04T19:27:43.602Z,102796.16
2023-05-04T19:30:13.501Z,102799.94
2023-05-04T19:32:41.705Z,102804.44
2023-05-04T19:35:10.085Z,102810.69
2023-05-04T19:37:38.218Z,102814.38
2023-05-04T19:40:07.361Z,102809.03
2023-05-04T19:42:35.621Z,102818.97
2023-05-04T19:45:05.461Z,102821.69
2023-05-04T19:47:34.835Z,102815.50
2023-05-04T19:50:03.055Z,102818.38
2023-05-04T19:52:31.020Z,102826.41
2023-05-04T19:54:59.222Z,102820.25
2023-05-04T19:57:27.181Z,102819.47
2023-05-04T19:59:56.707Z,102823.94
2023-05-04T20:02:25.171Z,102826.72
2023-05-04T20:04:54.631Z,102821.41
2023-05-04T20:07:23.064Z,102824.09
2023-05-04T20:09:51.007Z,102818.06
2023-05-04T20:12:19.019Z,102829.53
2023-05-04T20:14:47.224Z,102825.09
2023-05-04T20:17:15.657Z,102826.91
2023-05-04T20:19:44.019Z,102828.75
2023-05-04T20:22:13.343Z,102826.91
2023-05-04T20:24:41.942Z,102827.00
2023-05-04T20:27:09.872Z,102827.00
2023-05-04T20:29:37.990Z,102827.91
2023-05-04T20:32:07.274Z,102829.81
2023-05-04T20:34:35.750Z,102829.06
2023-05-04T20:37:03.757Z,102832.72
2023-05-04T20:39:33.284Z,102838.06
2023-05-04T20:42:01.487Z,102835.53
2023-05-04T20:44:29.544Z,102837.47
2023-05-04T20:46:57.640Z,102839.22
2023-05-04T20:49:25.943Z,102835.78
2023-05-04T20:51:54.029Z,102852.72
2023-05-04T20:54:22.343Z,102844.72
2023-05-04T20:56:51.796Z,102839.63
2023-05-04T20:59:20.033Z,102849.41
2023-05-04T21:01:48.102Z,102850.34
2023-05-04T21:04:16.157Z,102843.13
2023-05-04T21:06:46.390Z,102853.91
2023-05-04T21:09:16.551Z,102847.66
2023-05-04T21:11:44.707Z,102848.53
2023-05-04T21:14:14.059Z,102853.03
2023-05-04T21:16:42.059Z,102853.13
2023-05-04T21:19:10.052Z,102852.22
2023-05-04T21:21:40.799Z,102855.88
2023-05-04T21:24:12.169Z,102857.59
2023-05-04T21:26:40.435Z,102854.03
2023-05-04T21:29:13.421Z,102854.91
2023-05-04T21:31:42.561Z,102858.56
2023-05-04T21:34:10.632Z,102859.47
2023-05-04T21:36:40.456Z,102859.47
2023-05-04T21:39:08.494Z,102851.53
2023-05-04T21:41:36.578Z,102864.09
2023-05-04T21:44:04.696Z,102855.22
2023-05-04T21:46:34.105Z,102838.91
2023-05-04T21:49:02.182Z,102860.69
2023-05-04T21:51:30.410Z,102832.81
2023-05-04T21:53:58.562Z,102857.19
2023-05-04T21:56:26.481Z,102864.41
2023-05-04T21:58:54.523Z,102862.63
2023-05-04T22:01:22.666Z,102863.56
2023-05-04T22:03:52.857Z,102867.13
2023-05-04T22:06:22.057Z,102865.53
2023-05-04T22:08:49.995Z,102863.72
2023-05-04T22:11:18.026Z,102861.03
2023-05-04T22:13:46.049Z,102862.75
2023-05-04T22:16:13.977Z,102862.75
2023-05-04T22:18:42.067Z,102853.47
2023-05-04T22:21:11.445Z,102857.53
2023-05-04T22:23:39.636Z,102866.41
2023-05-04T22:26:07.724Z,102870.13
2023-05-04T22:28:35.827Z,102879.28
2023-05-04T22:31:03.810Z,102880.28
2023-05-04T22:33:31.946Z,102844.66
2023-05-04T22:36:00.039Z,102873.38
2023-05-04T22:38:29.392Z,102870.84
2023-05-04T22:40:57.420Z,102874.50
2023-05-04T22:43:25.411Z,102872.81
2023-05-04T22:45:53.441Z,102871.22
2023-05-04T22:48:21.552Z,102871.34
2023-05-04T22:50:49.885Z,102875.91
2023-05-04T22:53:17.938Z,102872.44
2023-05-04T22:55:48.268Z,102883.16
2023-05-04T22:58:16.298Z,102881.50
2023-05-04T23:00:44.316Z,102879.91
2023-05-04T23:03:12.403Z,102855.56
2023-05-04T23:05:40.551Z,102883.63
2023-05-04T23:08:08.667Z,102854.88
2023-05-04T23:10:36.761Z,102885.59
2023-05-04T23:13:06.155Z,102887.50
2023-05-04T23:15:34.206Z,102890.19
2023-05-04T23:18:02.231Z,102887.63
2023-05-04T23:20:30.299Z,102856.34
2023-05-04T23:22:58.218Z,102871.19
2023-05-04T23:25:26.582Z,102886.03
2023-05-04T23:27:54.738Z,102885.25
2023-05-04T23:30:24.222Z,102886.94
2023-05-04T23:32:52.372Z,102891.50
2023-05-04T23:35:20.370Z,102892.41
2023-05-04T23:37:48.418Z,102891.53
2023-05-04T23:40:16.444Z,102860.97
2023-05-04T23:42:44.546Z,102889.94
2023-05-04T23:45:12.888Z,102885.50
2023-05-04T23:47:42.295Z,102878.63
2023-05-04T23:50:11.599Z,102855.09
2023-05-04T23:52:39.625Z,102886.56
2023-05-04T23:55:07.939Z,102884.88
2023-05-04T23:57:36.387Z,102887.66
